createdAt,value
2019-05-26T07:35:11.174Z,58.8
2019-05-26T07:36:00.977Z,57.4
2019-05-26T09:13:03.171Z,70.3
2019-05-26T09:17:48.601Z,70.8
2019-05-26T09:18:39.131Z,70.8
2019-05-26T09:19:29.183Z,70.9
2019-05-26T09:20:19.256Z,70.9
2019-05-26T09:21:09.326Z,70.9
2019-05-26T09:22:49.456Z,70.6
2019-05-26T09:23:39.533Z,70.5
2019-05-26T09:25:19.835Z,70.6
2019-05-26T09:26:09.718Z,70.8
2019-05-26T09:26:59.294Z,70.9
2019-05-26T09:27:49.358Z,71
2019-05-26T09:28:39.910Z,70.9
2019-05-26T09:29:29.468Z,70.8
2019-05-26T09:30:20.081Z,70.8
2019-05-26T09:31:10.090Z,70.6
2019-05-26T09:32:00.147Z,70.6
2019-05-26T09:32:50.233Z,70.6
2019-05-26T09:33:40.307Z,70.6
2019-05-26T09:34:30.077Z,70.6
2019-05-26T09:35:20.503Z,70.6
2019-05-26T09:36:10.197Z,70.6
2019-05-26T09:37:00.580Z,70.6
2019-05-26T09:37:50.627Z,70.5
2019-05-26T09:38:40.117Z,70.6
2019-05-26T09:39:30.512Z,70.7
2019-05-26T09:40:19.969Z,70.8
2019-05-26T09:41:10.074Z,70.8
2019-05-26T09:42:00.665Z,70.8
2019-05-26T09:42:50.980Z,70.7
2019-05-26T09:43:41.064Z,70.5
2019-05-26T09:44:30.849Z,70.3
2019-05-26T09:45:20.931Z,70.1
2019-05-26T09:46:11.249Z,69.9
2019-05-26T09:47:01.311Z,69.7
2019-05-26T09:47:51.374Z,69.5
2019-05-26T09:48:41.437Z,69.4
2019-05-26T09:49:30.977Z,69.3
2019-05-26T09:50:21.580Z,69.1
2019-05-26T09:51:11.381Z,68.9
2019-05-26T09:52:01.753Z,68.8
2019-05-26T09:52:51.493Z,68.6
2019-05-26T09:53:41.541Z,68.6
2019-05-26T09:54:31.611Z,68.6
2019-05-26T09:55:21.960Z,68.6
2019-05-26T09:56:12.028Z,68.3
2019-05-26T09:57:01.520Z,67.8
2019-05-26T09:57:52.479Z,67.5
2019-05-26T09:58:41.936Z,67.3
2019-05-26T09:59:32.283Z,67.3
2019-05-26T10:00:22.350Z,67.3
2019-05-26T10:01:12.128Z,67.4
2019-05-26T10:02:02.526Z,67.6
2019-05-26T10:02:52.541Z,67.6
2019-05-26T10:05:18.456Z,67.1
2019-05-26T10:06:08.785Z,66.9
2019-05-26T10:06:58.580Z,66.8
2019-05-26T10:07:48.661Z,66.8
2019-05-26T10:08:39.000Z,66.7
2019-05-26T10:09:29.043Z,66.7
2019-05-26T10:10:19.113Z,66.6
2019-05-26T10:11:09.150Z,66.6
2019-05-26T10:11:58.986Z,66.7
2019-05-26T10:12:49.293Z,66.8
2019-05-26T10:13:38.815Z,66.9
2019-05-26T10:14:28.865Z,67.1
2019-05-26T10:15:19.482Z,67.2
2019-05-26T10:16:09.540Z,67.3
2019-05-26T10:16:59.335Z,67.3
2019-05-26T10:17:49.391Z,67.2
2019-05-26T10:18:39.462Z,67.1
2019-05-26T10:19:29.262Z,67
2019-05-26T10:20:19.947Z,67
2019-05-26T10:21:09.680Z,66.9
2019-05-26T10:21:59.504Z,66.9
2019-05-26T10:22:49.830Z,66.8
2019-05-26T10:23:39.842Z,66.8
2019-05-26T10:24:29.915Z,66.6
2019-05-26T10:25:19.995Z,66.5
2019-05-26T10:26:10.312Z,66.4
2019-05-26T10:27:00.387Z,66.3
2019-05-26T10:27:50.159Z,66.1
2019-05-26T10:28:40.249Z,65.9
2019-05-26T10:29:30.569Z,65.8
2019-05-26T10:30:20.656Z,65.6
2019-05-26T10:31:10.426Z,65.4
2019-05-26T10:32:00.751Z,65.4
2019-05-26T10:32:50.553Z,65.3
2019-05-26T10:33:40.889Z,65.4
2019-05-26T10:34:30.411Z,65.4
2019-05-26T10:35:21.039Z,65.4
2019-05-26T10:36:11.095Z,65.3
2019-05-26T10:37:01.156Z,65.3
2019-05-26T10:37:51.216Z,65.3
2019-05-26T10:38:41.004Z,65.3
2019-05-26T10:39:31.078Z,65.3
2019-05-26T10:40:21.424Z,65.4
2019-05-26T10:41:11.206Z,65.4
2019-05-26T10:42:01.278Z,65.7
2019-05-26T10:43:49.242Z,66.1
2019-05-26T10:45:21.809Z,66.4
2019-05-26T10:46:11.983Z,66.6
2019-05-26T10:47:01.659Z,66.6
2019-05-26T10:47:51.701Z,66.8
2019-05-26T10:49:32.191Z,67.3
2019-05-26T10:51:11.965Z,67.8
2019-05-26T10:52:52.383Z,67.6
2019-05-26T10:55:22.019Z,66.6
2019-05-26T11:27:16.163Z,69
2019-05-26T11:42:10.536Z,69.1
2019-05-26T12:00:14.405Z,66
2019-05-26T12:05:19.943Z,62.6
2019-05-26T12:06:08.446Z,63.4
2019-05-26T12:06:58.516Z,64.4
2019-05-26T12:07:48.865Z,65.7
2019-05-26T12:08:38.681Z,66.9
2019-05-26T12:09:28.421Z,68.8
2019-05-26T12:10:18.786Z,70.3
2019-05-26T12:11:09.096Z,70.4
2019-05-26T12:11:58.900Z,70.2
2019-05-26T12:12:49.221Z,69.3
2019-05-26T12:13:39.026Z,68.1
2019-05-26T12:14:37.277Z,67.4
2019-05-26T12:16:09.185Z,67.8
2019-05-26T12:16:59.353Z,68.5
2019-05-26T12:17:49.335Z,69.1
2019-05-26T12:18:39.391Z,69.5
2019-05-26T12:19:29.168Z,69.6
2019-05-26T12:20:19.506Z,69.5
2019-05-26T12:21:09.844Z,69.4
2019-05-26T12:21:59.718Z,69.3
2019-05-26T12:22:49.442Z,69.5
2019-05-26T12:23:39.500Z,69.7
2019-05-26T12:24:29.866Z,69.9
2019-05-26T12:25:19.921Z,70.1
2019-05-26T12:26:10.242Z,70.2
2019-05-26T12:27:00.312Z,70.2
2019-05-26T12:27:50.360Z,70.1
2019-05-26T12:28:40.197Z,70
2019-05-26T12:29:30.502Z,70
2019-05-26T12:30:20.050Z,70
2019-05-26T12:31:10.642Z,70.1
2019-05-26T12:32:00.439Z,70.2
2019-05-26T12:32:50.547Z,70.3
2019-05-26T12:33:40.544Z,70.3
2019-05-26T12:34:30.348Z,70.4
2019-05-26T12:35:20.682Z,70.4
2019-05-26T12:36:10.729Z,70.4
2019-05-26T12:37:01.105Z,70.5
2019-05-26T12:37:51.140Z,70.5
2019-05-26T12:38:41.209Z,70.6
2019-05-26T12:39:31.275Z,70.6
2019-05-26T12:40:20.772Z,70.6
2019-05-26T12:41:11.396Z,70.4
2019-05-26T12:42:51.526Z,70.1
2019-05-26T12:45:21.739Z,69.5
2019-05-26T12:47:51.644Z,68.6
2019-05-26T12:48:41.991Z,68.2
2019-05-26T13:34:37.138Z,55.6
2019-05-26T13:54:36.759Z,59.7
2019-05-26T13:55:27.096Z,59.7
2019-05-26T13:56:16.889Z,59.7
2019-05-26T13:57:07.228Z,59.7
2019-05-26T13:57:57.017Z,59.7
2019-05-26T13:59:37.420Z,59.3
2019-05-26T14:00:27.217Z,59.1
2019-05-26T14:01:17.552Z,59
2019-05-26T14:02:07.342Z,59
2019-05-26T14:02:57.405Z,58.9
2019-05-26T14:03:47.459Z,58.9
2019-05-26T14:06:18.376Z,59.1
2019-05-26T14:07:08.361Z,59.2
2019-05-26T14:07:58.711Z,59.4
2019-05-26T14:08:48.774Z,59.5
2019-05-26T14:09:38.859Z,59.6
2019-05-26T14:10:28.633Z,59.7
2019-05-26T14:11:18.956Z,59.7
2019-05-26T14:12:08.768Z,59.8
2019-05-26T14:12:59.079Z,59.7
2019-05-26T14:13:49.132Z,59.6
2019-05-26T14:14:39.221Z,59.6
2019-05-26T14:15:40.841Z,59.4
2019-05-26T14:17:09.426Z,59.1
2019-05-26T14:17:59.465Z,58.8
2019-05-26T14:18:49.526Z,58.5
2019-05-26T14:19:39.048Z,58.2
2019-05-26T14:20:29.650Z,57.8
2019-05-26T14:21:19.695Z,57.4
2019-05-26T14:22:09.786Z,56.9
2019-05-26T14:22:59.591Z,56.4
2019-05-26T14:23:49.910Z,55.9
2019-05-26T14:24:55.957Z,55.6
2019-05-26T14:26:19.550Z,54.8
2019-05-26T14:27:10.150Z,54.4
2019-05-26T14:27:59.960Z,54.1
2019-05-26T14:28:49.742Z,53.8
2019-05-26T14:29:40.365Z,53.6
2019-05-26T14:30:29.858Z,53.4
2019-05-26T14:31:20.205Z,53.3
2019-05-26T14:32:10.238Z,53.1
2019-05-26T14:33:00.593Z,52.9
2019-05-26T14:33:50.137Z,52.7
2019-05-26T14:35:30.777Z,52.4
2019-05-26T14:37:10.921Z,52.1
2019-05-26T14:38:50.777Z,51.7
2019-05-26T14:39:41.122Z,51.4
2019-05-26T14:40:45.870Z,51.1
2019-05-26T14:43:56.963Z,50
2019-05-26T14:44:46.744Z,49.8
2019-05-26T14:45:53.919Z,49.6
2019-05-26T14:47:17.204Z,49.1
2019-05-26T14:48:07.354Z,48.9
2019-05-26T14:48:57.339Z,48.8
2019-05-26T14:49:46.854Z,48.6
2019-05-26T14:51:27.281Z,48.4
2019-05-26T14:52:17.599Z,48.3
2019-05-26T14:53:07.376Z,48.2
2019-05-26T14:53:57.197Z,48.1
2019-05-26T14:54:47.785Z,48
2019-05-26T14:55:37.849Z,47.9
2019-05-26T14:56:27.987Z,47.8
2019-05-26T14:57:18.040Z,47.6
2019-05-26T14:58:18.053Z,47.4
2019-05-26T14:59:48.169Z,47.2
2019-05-26T15:00:37.955Z,47.1
2019-05-26T15:01:28.012Z,47.1
2019-05-26T15:02:17.565Z,47.1
2019-05-26T15:03:08.243Z,47.1
2019-05-26T15:03:58.243Z,47.1
2019-05-26T15:04:48.540Z,46.9
2019-05-26T15:05:38.053Z,46.9
2019-05-26T15:06:28.655Z,46.8
2019-05-26T15:07:18.745Z,46.7
2019-05-26T15:08:08.530Z,46.6
2019-05-26T15:08:58.598Z,46.6
2019-05-26T15:09:48.660Z,46.4
2019-05-26T15:10:38.990Z,46.4
2019-05-26T15:11:28.778Z,46.3
2019-05-26T15:12:19.118Z,46.1
2019-05-26T15:13:09.440Z,46.1
2019-05-26T15:13:58.974Z,45.9
2019-05-26T15:14:48.760Z,45.8
2019-05-26T15:15:39.445Z,45.6
2019-05-26T15:16:29.442Z,45.4
2019-05-26T15:17:19.512Z,45.3
2019-05-26T15:18:09.315Z,45.2
2019-05-26T15:18:59.122Z,45
2019-05-26T15:19:49.684Z,44.8
2019-05-26T15:20:39.478Z,44.6
2019-05-26T15:21:30.057Z,44.3
2019-05-26T15:22:19.662Z,44.1
2019-05-26T15:23:09.682Z,43.8
2019-05-26T15:23:59.815Z,43.6
2019-05-26T15:24:49.329Z,43.4
2019-05-26T15:25:39.864Z,43.3
2019-05-26T15:26:29.945Z,43.1
2019-05-26T15:27:20.265Z,42.9
2019-05-26T15:28:10.386Z,42.8
2019-05-26T15:28:59.832Z,42.7
2019-05-26T15:29:50.230Z,42.6
2019-05-26T15:30:39.978Z,42.4
2019-05-26T15:31:30.580Z,42.3
2019-05-26T15:32:20.430Z,42.3
2019-05-26T15:33:10.726Z,42.1
2019-05-26T15:34:00.765Z,42
2019-05-26T15:34:50.845Z,41.9
2019-05-26T15:35:40.850Z,41.7
2019-05-26T15:37:21.084Z,41.4
2019-05-26T15:38:10.822Z,41.3
2019-05-26T15:39:01.220Z,41.1
2019-05-26T15:39:50.993Z,40.9
2019-05-26T15:40:41.303Z,40.8
2019-05-26T15:41:31.400Z,40.6
2019-05-26T15:42:20.867Z,40.4
2019-05-26T15:43:11.479Z,40.3
2019-05-26T15:44:01.545Z,40.2
2019-05-26T15:44:51.807Z,40.1
2019-05-26T15:46:31.725Z,39.8
2019-05-26T15:48:11.586Z,39.6
2019-05-26T15:50:42.063Z,39.3
2019-05-26T16:06:18.501Z,37.4
2019-05-26T16:07:08.590Z,37.3
2019-05-26T16:07:58.645Z,37.2
2019-05-26T16:08:48.711Z,37.1
2019-05-26T16:09:38.503Z,37
2019-05-26T16:10:28.835Z,36.9
2019-05-26T16:11:18.609Z,36.8
2019-05-26T16:12:08.718Z,36.7
2019-05-26T16:12:59.021Z,36.6
2019-05-26T16:13:49.419Z,36.4
2019-05-26T16:14:39.152Z,36.3
2019-05-26T16:15:28.950Z,36.3
2019-05-26T16:16:19.012Z,36.1
2019-05-26T16:17:09.328Z,36.1
2019-05-26T16:17:59.380Z,35.9
2019-05-26T16:18:49.193Z,35.8
2019-05-26T16:19:38.972Z,35.7
2019-05-26T16:20:29.598Z,35.6
2019-05-26T16:21:30.059Z,35.4
2019-05-26T16:22:59.228Z,35.2
2019-05-26T16:23:49.049Z,35.1
2019-05-26T16:24:39.789Z,34.9
2019-05-26T16:25:29.972Z,34.8
2019-05-26T16:26:19.767Z,34.7
2019-05-26T16:27:21.457Z,34.6
2019-05-26T16:28:50.224Z,34.3
2019-05-26T16:29:40.295Z,34.2
2019-05-26T16:30:30.071Z,34.1
2019-05-26T16:31:20.424Z,33.9
2019-05-26T16:32:09.939Z,33.8
2019-05-26T16:33:00.568Z,33.6
2019-05-26T16:34:40.676Z,33.4
2019-05-26T16:35:30.457Z,33.3
2019-05-26T16:36:23.332Z,33.1
2019-05-26T16:38:00.939Z,32.9
2019-05-26T16:38:50.776Z,32.9
2019-05-26T16:39:40.512Z,32.8
2019-05-26T16:40:31.126Z,32.7
2019-05-26T16:41:21.194Z,32.6
2019-05-26T16:43:01.313Z,32.5
2019-05-26T16:43:50.753Z,32.4
2019-05-26T16:45:31.528Z,32.3
2019-05-26T16:47:11.351Z,32
2019-05-26T16:48:01.715Z,31.9
2019-05-26T17:17:16.952Z,28.5
2019-05-26T17:47:32.459Z,25.1
2019-05-26T17:53:06.712Z,24.6
2019-05-26T17:55:36.635Z,24.3
2019-05-26T17:56:26.971Z,24.3
2019-05-26T17:58:56.653Z,24.1
2019-05-26T17:59:47.207Z,24
2019-05-26T18:00:36.732Z,23.9
2019-05-26T18:02:17.407Z,23.8
2019-05-26T18:03:07.177Z,23.7
2019-05-26T18:03:57.249Z,23.6
2019-05-26T18:06:18.439Z,23.4
2019-05-26T18:07:08.224Z,23.4
2019-05-26T18:07:58.306Z,23.3
2019-05-26T18:08:48.681Z,23.3
2019-05-26T18:09:46.462Z,23.2
2019-05-26T18:11:18.391Z,23.1
2019-05-26T18:12:08.332Z,23.1
2019-05-26T18:12:58.961Z,23
2019-05-26T18:13:49.179Z,22.9
2019-05-26T18:14:39.084Z,22.9
2019-05-26T18:15:29.216Z,22.8
2019-05-26T18:16:19.414Z,22.8
2019-05-26T18:17:08.720Z,22.8
2019-05-26T18:17:59.465Z,22.7
2019-05-26T18:18:48.849Z,22.6
2019-05-26T18:19:39.481Z,22.6
2019-05-26T18:20:29.526Z,22.5
2019-05-26T18:21:19.603Z,22.4
2019-05-26T18:22:09.736Z,22.4
2019-05-26T18:23:00.136Z,22.4
2019-05-26T18:23:49.526Z,22.3
2019-05-26T18:24:39.608Z,22.3
2019-05-26T18:25:29.919Z,22.2
2019-05-26T18:26:19.408Z,22.2
2019-05-26T18:27:09.499Z,22.1
2019-05-26T18:27:59.575Z,22.1
2019-05-26T18:28:49.937Z,22
2019-05-26T18:29:39.503Z,21.9
2019-05-26T18:30:30.033Z,21.9
2019-05-26T18:31:20.362Z,21.9
2019-05-26T18:32:11.347Z,21.9
2019-05-26T18:33:50.590Z,21.7
2019-05-26T18:34:40.633Z,21.7
2019-05-26T18:35:30.690Z,21.6
2019-05-26T18:36:20.179Z,21.6
2019-05-26T18:37:10.512Z,21.5
2019-05-26T18:38:00.577Z,21.5
2019-05-26T18:38:50.925Z,21.4
2019-05-26T18:39:40.444Z,21.4
2019-05-26T18:40:31.115Z,21.3
2019-05-26T18:41:21.112Z,21.3
2019-05-26T18:42:11.202Z,21.3
2019-05-26T18:43:00.974Z,21.3
2019-05-26T18:44:41.439Z,21.2
2019-05-26T18:47:11.573Z,21.1
2019-05-26T18:48:05.395Z,21.1
2019-05-26T18:49:41.707Z,21
2019-05-26T18:52:11.954Z,20.9
2019-05-26T18:56:36.967Z,20.8
2019-05-26T19:05:39.472Z,20.5
